North American — WBL7959 — position and weather

sailwx.info

Track history (hours):
 
Tides and Currents Weather Stations Pressure Air Temp Water Temp Dewpoint Dewpoint Depression Visibility Wind Speed Wind Dir Waves Ship Positions

North American

Owner: NORTH AMERICAN INC, SEATTLE, WA. More information available from US FCC via Universal Licensing System and Coast Guard Vessel Documentation Center.

Last reported at 2017-Nov-30 00:17 UTC. Time now 2018-Feb-22 19:30 UTC.
Position N 47°39' W 122°22'.
Warning: this ship's position is months out of date.

Length 32 m; draft 2.5 m.

Type: Fishing. MMSI: 367307370.

Date/timePositionNaut miles runAvg speedWind from/ knotsBaromVisibWave heightAir tempDewpointWater temp
2017-Nov-30 00:17N 47°39' W 122°22'0 0.0
2017-Nov-30 00:00N 47°39' W 122°22'0 0.0
2017-Nov-29 23:30N 47°39' W 122°22'0 0.0
2017-Nov-29 23:00N 47°39' W 122°22'0 0.0
2017-Nov-29 22:30N 47°39' W 122°22'1 2.6
2017-Nov-29 22:00N 47°40' W 122°24'2 3.3
2017-Nov-29 21:30N 47°41' W 122°25'3 6.5
2017-Nov-29 21:00N 47°45' W 122°24'0 0.3
2017-Nov-29 20:31N 47°44' W 122°24'4 9.0
2017-Nov-29 20:00N 47°40' W 122°24'0 0.4
2017-Nov-29 19:30N 47°40' W 122°24'1 2.2
2017-Nov-29 19:00N 47°39' W 122°22'0 0.0
2017-Nov-29 18:30N 47°39' W 122°22'0 0.0
2017-Nov-29 18:00N 47°39' W 122°22'0 0.0
2017-Nov-29 17:30N 47°39' W 122°22'0 0.0
2017-Nov-29 17:00N 47°39' W 122°22'0 0.0
2017-Nov-29 16:30N 47°39' W 122°22'0 0.0
2017-Nov-29 16:00N 47°39' W 122°22'0 0.0
2017-Nov-29 15:30N 47°39' W 122°22'0 0.0
2017-Nov-29 15:00N 47°39' W 122°22'0 0.0
2017-Nov-29 14:30N 47°39' W 122°22'0 0.0
2017-Nov-29 14:00N 47°39' W 122°22'0 0.0
2017-Nov-29 13:30N 47°39' W 122°22'0 0.0
2017-Nov-29 13:00N 47°39' W 122°22'0 0.0
2017-Nov-29 12:30N 47°39' W 122°22'0 0.0
2017-Nov-29 12:00N 47°39' W 122°22'0 0.0
2017-Nov-29 11:30N 47°39' W 122°22'0 0.0
2017-Nov-29 11:00N 47°39' W 122°22'0 0.0
2017-Nov-29 10:30N 47°39' W 122°22'0 0.0
2017-Nov-29 10:01N 47°39' W 122°22'0 0.0
2017-Nov-29 09:30N 47°39' W 122°22'0 0.0
2017-Nov-29 09:00N 47°39' W 122°22'0 0.0
2017-Nov-29 08:30N 47°39' W 122°22'0 0.0
2017-Nov-29 08:00N 47°39' W 122°22'0 0.0
2017-Nov-29 07:30N 47°39' W 122°22'0 0.0
2017-Nov-29 07:00N 47°39' W 122°22'0 0.0
2017-Nov-29 06:30N 47°39' W 122°22'0 0.0
2017-Nov-29 06:00N 47°39' W 122°22'0 0.0
2017-Nov-29 05:30N 47°39' W 122°22'0 0.0
2017-Nov-29 05:00N 47°39' W 122°22'0 0.0
2017-Nov-29 04:30N 47°39' W 122°22'0 0.0
2017-Nov-29 04:00N 47°39' W 122°22'0 0.0
2017-Nov-29 03:30N 47°39' W 122°22'0 0.0
2017-Nov-29 03:00N 47°39' W 122°22'0 0.0
2017-Nov-29 02:30N 47°39' W 122°22'0 0.0
2017-Nov-29 02:00N 47°39' W 122°22'0 0.0
2017-Nov-29 01:30N 47°39' W 122°22'0 0.0
2017-Nov-29 01:00N 47°39' W 122°22'0 0.0
2017-Nov-29 00:30N 47°39' W 122°22'0 0.0
2017-Nov-29 00:00N 47°39' W 122°22'0 0.0
2017-Nov-28 23:30N 47°39' W 122°22'0 0.0
2017-Nov-28 23:01N 47°39' W 122°22'0 0.0
2017-Nov-28 22:31N 47°39' W 122°22'0 0.0
2017-Nov-28 22:00N 47°39' W 122°22'0 0.0
2017-Nov-28 21:30N 47°39' W 122°22'0 0.0
2017-Nov-28 21:00N 47°39' W 122°22'0 0.0
2017-Nov-28 20:30N 47°39' W 122°22'0 0.0
2017-Nov-28 20:00N 47°39' W 122°22'0 0.0
2017-Nov-28 19:30N 47°39' W 122°22'0 0.0
2017-Nov-28 19:00N 47°39' W 122°22'0 0.0
2017-Nov-28 18:31N 47°39' W 122°22'0 0.0
2017-Nov-28 18:00N 47°39' W 122°22'0 0.0
2017-Nov-28 17:30N 47°39' W 122°22'0 0.0
2017-Nov-28 17:01N 47°39' W 122°22'0 0.0
2017-Nov-28 16:30N 47°39' W 122°22'0 0.0
2017-Nov-28 16:00N 47°39' W 122°22'0 0.0
2017-Nov-28 15:00N 47°39' W 122°22'0 0.0
2017-Nov-28 14:30N 47°39' W 122°22'0 0.0
2017-Nov-28 14:00N 47°39' W 122°22'0 0.0
2017-Nov-28 13:30N 47°39' W 122°22'0 0.0
2017-Nov-28 13:00N 47°39' W 122°22'0 0.0
2017-Nov-28 12:29N 47°39' W 122°22'0 0.0
2017-Nov-28 12:00N 47°39' W 122°22'0 0.0
2017-Nov-28 11:30N 47°39' W 122°22'0 0.0
2017-Nov-28 11:00N 47°39' W 122°22'0 0.0
2017-Nov-28 10:30N 47°39' W 122°22'0 0.0
2017-Nov-28 10:00N 47°39' W 122°22'0 0.0
2017-Nov-28 09:30N 47°39' W 122°22'0 0.0
2017-Nov-28 09:00N 47°39' W 122°22'0 0.0
2017-Nov-28 08:30N 47°39' W 122°22'0 0.0
2017-Nov-28 08:00N 47°39' W 122°22'0 0.0
2017-Nov-28 07:30N 47°39' W 122°22'0 0.0
2017-Nov-28 07:00N 47°39' W 122°22'0 0.0
2017-Nov-28 06:30N 47°39' W 122°22'0 0.0
2017-Nov-28 06:00N 47°39' W 122°22'0 0.0
2017-Nov-28 05:30N 47°39' W 122°22'0 0.0
2017-Nov-28 04:30N 47°39' W 122°22'0 0.0
2017-Nov-28 04:00N 47°39' W 122°22'0 0.0
2017-Nov-28 03:30N 47°39' W 122°22'0 0.0
2017-Nov-28 03:00N 47°39' W 122°22'0 0.0
2017-Nov-28 02:30N 47°39' W 122°22'0 0.0
2017-Nov-28 02:00N 47°39' W 122°22'0 0.0
2017-Nov-28 01:30N 47°39' W 122°22'0 0.0
2017-Nov-28 01:00N 47°39' W 122°22'0 0.0
2017-Nov-28 00:30N 47°39' W 122°22'0 0.0
2017-Nov-28 00:00N 47°39' W 122°22'0 0.0
2017-Nov-27 23:31N 47°39' W 122°22'0 0.0
2017-Nov-27 23:00N 47°39' W 122°22'0 0.0
2017-Nov-27 22:30N 47°39' W 122°22'0 0.0
2017-Nov-27 22:00N 47°39' W 122°22'0 0.0
2017-Nov-27 21:30N 47°39' W 122°22'0 0.0
2017-Nov-27 20:54N 47°39' W 122°22'0 0.0
2017-Nov-27 20:30N 47°39' W 122°22'0 0.0
2017-Nov-27 20:00N 47°39' W 122°22'0 0.0
2017-Nov-27 19:30N 47°39' W 122°22'0 0.0
2017-Nov-27 19:00N 47°39' W 122°22'0 0.0
2017-Nov-27 18:30N 47°39' W 122°22'0 0.0
2017-Nov-27 18:00N 47°39' W 122°22'0 0.0
2017-Nov-27 17:27N 47°39' W 122°22'0 0.0
2017-Nov-27 16:59N 47°39' W 122°22'0 0.0
2017-Nov-27 16:30N 47°39' W 122°22'0 0.0
2017-Nov-27 15:58N 47°39' W 122°22'0 0.0
2017-Nov-27 15:30N 47°39' W 122°22'0 0.0
2017-Nov-27 14:44N 47°39' W 122°22'0 0.0
2017-Nov-27 14:09N 47°39' W 122°22'0 0.0
2017-Nov-27 13:56N 47°39' W 122°22'0 0.0
2017-Nov-27 13:30N 47°39' W 122°22'0 0.0
2017-Nov-27 13:00N 47°39' W 122°22'0 0.0
2017-Nov-27 12:30N 47°39' W 122°22'0 0.0
2017-Nov-27 11:57N 47°39' W 122°22'0 0.0
2017-Nov-27 11:27N 47°39' W 122°22'0 0.0
2017-Nov-27 10:57N 47°39' W 122°22'0 0.0
2017-Nov-27 10:29N 47°39' W 122°22'0 0.0
2017-Nov-27 09:59N 47°39' W 122°22'0 0.0
2017-Nov-27 09:29N 47°39' W 122°22'0 0.0
2017-Nov-27 08:59N 47°39' W 122°22'0 0.0
2017-Nov-27 08:30N 47°39' W 122°22'0 0.0
2017-Nov-27 08:00N 47°39' W 122°22'0 0.0
2017-Nov-27 07:30N 47°39' W 122°22'0 0.0
2017-Nov-27 07:00N 47°39' W 122°22'0 0.0
2017-Nov-27 06:30N 47°39' W 122°22'0 0.0
2017-Nov-27 06:00N 47°39' W 122°22'0 0.0
2017-Nov-27 05:30N 47°39' W 122°22'0 0.0
2017-Nov-27 05:00N 47°39' W 122°22'0 0.0
2017-Nov-27 04:31N 47°39' W 122°22'0 0.0
2017-Nov-27 04:00N 47°39' W 122°22'0 0.0
2017-Nov-27 03:29N 47°39' W 122°22'0 0.0
2017-Nov-27 03:00N 47°39' W 122°22'0 0.0
2017-Nov-27 02:30N 47°39' W 122°22'0 0.0
2017-Nov-27 01:58N 47°39' W 122°22'0 0.0
2017-Nov-27 01:30N 47°39' W 122°22'0 0.0
2017-Nov-27 01:00N 47°39' W 122°22'0 0.0
2017-Nov-27 00:30N 47°39' W 122°22'0 0.0
2017-Nov-27 00:00N 47°39' W 122°22'0 0.0
2017-Nov-26 23:30N 47°39' W 122°22'0 0.0
2017-Nov-26 23:00N 47°39' W 122°22'0 0.0
2017-Nov-26 22:30N 47°39' W 122°22'0 0.0
2017-Nov-26 22:00N 47°39' W 122°22'0 0.0
2017-Nov-26 21:30N 47°39' W 122°22'0 0.0
2017-Nov-26 21:00N 47°39' W 122°22'0 0.0
2017-Nov-26 20:29N 47°39' W 122°22'0 0.0
2017-Nov-26 20:00N 47°39' W 122°22'0 0.0
2017-Nov-26 19:31N 47°39' W 122°22'0 0.0
2017-Nov-26 19:00N 47°39' W 122°22'0 0.0
2017-Nov-26 18:30N 47°39' W 122°22'0 0.0
2017-Nov-26 18:00N 47°39' W 122°22'0 0.0
2017-Nov-26 17:30N 47°39' W 122°22'0 0.0
2017-Nov-26 17:00N 47°39' W 122°22'0 0.0
2017-Nov-26 16:30N 47°39' W 122°22'0 0.0
2017-Nov-26 16:00N 47°39' W 122°22'0 0.0
2017-Nov-26 15:30N 47°39' W 122°22'0 0.0
2017-Nov-26 15:00N 47°39' W 122°22'0 0.0
2017-Nov-26 14:30N 47°39' W 122°22'0 0.0
2017-Nov-26 14:00N 47°39' W 122°22'0 0.0
2017-Nov-26 13:29N 47°39' W 122°22'0 0.0
2017-Nov-26 13:00N 47°39' W 122°22'0 0.0
2017-Nov-26 12:30N 47°39' W 122°22'0 0.0
2017-Nov-26 12:01N 47°39' W 122°22'0 0.0
2017-Nov-26 11:30N 47°39' W 122°22'0 0.0
2017-Nov-26 10:59N 47°39' W 122°22'0 0.0
2017-Nov-26 10:30N 47°39' W 122°22'0 0.0
2017-Nov-26 10:00N 47°39' W 122°22'0 0.0
2017-Nov-26 09:30N 47°39' W 122°22'0 0.0
2017-Nov-26 08:59N 47°39' W 122°22'0 0.0
2017-Nov-26 08:30N 47°39' W 122°22'0 0.0
2017-Nov-26 08:00N 47°39' W 122°22'0 0.0
2017-Nov-26 07:30N 47°39' W 122°22'0 0.0
2017-Nov-26 06:59N 47°39' W 122°22'0 0.0
2017-Nov-26 06:30N 47°39' W 122°22'0 0.0
2017-Nov-26 06:00N 47°39' W 122°22'0 0.0
2017-Nov-26 05:30N 47°39' W 122°22'0 0.0
2017-Nov-26 05:00N 47°39' W 122°22'0 0.0
2017-Nov-26 04:30N 47°39' W 122°22'0 0.0
2017-Nov-26 03:59N 47°39' W 122°22'0 0.0
2017-Nov-26 03:30N 47°39' W 122°22'0 0.0
2017-Nov-26 03:00N 47°39' W 122°22'0 0.0
2017-Nov-26 02:30N 47°39' W 122°22'0 0.0
2017-Nov-26 02:01N 47°39' W 122°22'0 0.0
2017-Nov-26 01:31N 47°39' W 122°22'0 0.0
2017-Nov-26 01:00N 47°39' W 122°22'0 0.0
2017-Nov-26 00:30N 47°39' W 122°22'0 0.0
2017-Nov-26 00:00N 47°39' W 122°22'0 0.0
2017-Nov-25 23:30N 47°39' W 122°22'0 0.0
2017-Nov-25 23:00N 47°39' W 122°22'0 0.0
2017-Nov-25 22:30N 47°39' W 122°22'0 0.0
2017-Nov-25 22:00N 47°39' W 122°22'0 0.0
2017-Nov-25 21:30N 47°39' W 122°22'0 0.0
2017-Nov-25 21:00N 47°39' W 122°22'0 0.0
2017-Nov-25 20:30N 47°39' W 122°22'0 0.0
2017-Nov-25 20:01N 47°39' W 122°22'0 0.0
2017-Nov-25 19:30N 47°39' W 122°22'0 0.0
2017-Nov-25 19:00N 47°39' W 122°22'0 0.0
2017-Nov-25 18:30N 47°39' W 122°22'0 0.0
2017-Nov-25 18:00N 47°39' W 122°22'0 0.0
2017-Nov-25 17:30N 47°39' W 122°22'0 0.0
2017-Nov-25 17:00N 47°39' W 122°22'0 0.0
2017-Nov-25 16:30N 47°39' W 122°22'0 0.0
2017-Nov-25 16:00N 47°39' W 122°22'0 0.0
2017-Nov-25 15:30N 47°39' W 122°22'0 0.0
2017-Nov-25 15:00N 47°39' W 122°22'0 0.0
2017-Nov-25 14:30N 47°39' W 122°22'0 0.0
2017-Nov-25 14:00N 47°39' W 122°22'0 0.0
2017-Nov-25 13:30N 47°39' W 122°22'0 0.0
2017-Nov-25 13:00N 47°39' W 122°22'0 0.0
2017-Nov-25 12:30N 47°39' W 122°22'0 0.0
2017-Nov-25 12:00N 47°39' W 122°22'0 0.0
2017-Nov-25 11:30N 47°39' W 122°22'0 0.0
2017-Nov-25 11:00N 47°39' W 122°22'0 0.0
2017-Nov-25 10:30N 47°39' W 122°22'0 0.0
2017-Nov-25 10:00N 47°39' W 122°22'0 0.0
2017-Nov-25 09:30N 47°39' W 122°22'0 0.0
2017-Nov-25 09:00N 47°39' W 122°22'0 0.0
2017-Nov-25 08:30N 47°39' W 122°22'0 0.0
2017-Nov-25 08:00N 47°39' W 122°22'0 0.0
2017-Nov-25 07:30N 47°39' W 122°22'0 0.0
2017-Nov-25 07:00N 47°39' W 122°22'0 0.0
2017-Nov-25 06:30N 47°39' W 122°22'0 0.0
2017-Nov-25 06:00N 47°39' W 122°22'0 0.0
2017-Nov-25 05:30N 47°39' W 122°22'0 0.0
2017-Nov-25 05:00N 47°39' W 122°22'0 0.0
2017-Nov-25 04:30N 47°39' W 122°22'0 0.0
2017-Nov-25 04:00N 47°39' W 122°22'0 0.0
2017-Nov-25 03:30N 47°39' W 122°22'0 0.0
2017-Nov-25 03:00N 47°39' W 122°22'0 0.0
2017-Nov-25 02:30N 47°39' W 122°22'0 0.0
2017-Nov-25 02:00N 47°39' W 122°22'0 0.0
2017-Nov-25 01:30N 47°39' W 122°22'0 0.0
2017-Nov-25 01:00N 47°39' W 122°22'0 0.0
2017-Nov-25 00:30N 47°39' W 122°22'0 0.0
2017-Nov-25 00:00N 47°39' W 122°22'0 0.0
2017-Nov-24 23:30N 47°39' W 122°22'0 0.0
2017-Nov-24 23:00N 47°39' W 122°22'0 0.0
2017-Nov-24 22:30N 47°39' W 122°22'0 0.0
2017-Nov-24 22:00N 47°39' W 122°22'0 0.0
2017-Nov-24 21:30N 47°39' W 122°22'0 0.0
2017-Nov-24 21:00N 47°39' W 122°22'0 0.0
2017-Nov-24 20:30N 47°39' W 122°22'0 0.0
2017-Nov-24 20:00N 47°39' W 122°22'0 0.0
2017-Nov-24 19:30N 47°39' W 122°22'0 0.0
2017-Nov-24 19:00N 47°39' W 122°22'0 0.0
2017-Nov-24 18:30N 47°39' W 122°22'0 0.0
2017-Nov-24 18:00N 47°39' W 122°22'0 0.0
2017-Nov-24 17:30N 47°39' W 122°22'0 0.0
2017-Nov-24 17:00N 47°39' W 122°22'0 0.0
2017-Nov-24 16:30N 47°39' W 122°22'0 0.0
2017-Nov-24 16:00N 47°39' W 122°22'0 0.0
2017-Nov-24 15:30N 47°39' W 122°22'0 0.0
2017-Nov-24 15:00N 47°39' W 122°22'0 0.0
2017-Nov-24 14:30N 47°39' W 122°22'0 0.0
2017-Nov-24 14:00N 47°39' W 122°22'0 0.0
2017-Nov-24 13:30N 47°39' W 122°22'0 0.0
2017-Nov-24 13:00N 47°39' W 122°22'0 0.0
2017-Nov-24 12:30N 47°39' W 122°22'0 0.0
2017-Nov-24 12:00N 47°39' W 122°22'0 0.0
2017-Nov-24 11:30N 47°39' W 122°22'0 0.0
2017-Nov-24 11:00N 47°39' W 122°22'0 0.0
2017-Nov-24 10:30N 47°39' W 122°22'0 0.0
2017-Nov-24 10:00N 47°39' W 122°22'0 0.0
2017-Nov-24 09:30N 47°39' W 122°22'0 0.0
2017-Nov-24 09:00N 47°39' W 122°22'0 0.0
2017-Nov-24 08:30N 47°39' W 122°22'0 0.0
2017-Nov-24 08:00N 47°39' W 122°22'0 0.0
2017-Nov-24 07:30N 47°39' W 122°22'0 0.0
2017-Nov-24 07:00N 47°39' W 122°22'0 0.0
2017-Nov-24 06:30N 47°39' W 122°22'0 0.0
2017-Nov-24 06:00N 47°39' W 122°22'0 0.0
2017-Nov-24 05:30N 47°39' W 122°22'0 0.0
2017-Nov-24 05:00N 47°39' W 122°22'0 0.0
2017-Nov-24 04:30N 47°39' W 122°22'0 0.0
2017-Nov-24 04:00N 47°39' W 122°22'0 0.0
2017-Nov-24 03:30N 47°39' W 122°22'0 0.0
2017-Nov-24 03:00N 47°39' W 122°22'0 0.0
2017-Nov-24 02:30N 47°39' W 122°22'0 0.0
2017-Nov-24 02:00N 47°39' W 122°22'0 0.0
2017-Nov-24 01:30N 47°39' W 122°22'0 0.0
2017-Nov-24 01:00N 47°39' W 122°22'0 0.0
2017-Nov-24 00:30N 47°39' W 122°22'0 0.0
2017-Nov-24 00:00N 47°39' W 122°22'0 0.0
2017-Nov-23 23:30N 47°39' W 122°22'0 0.0
2017-Nov-23 23:00N 47°39' W 122°22'0 0.0
2017-Nov-23 22:30N 47°39' W 122°22'0 0.0
2017-Nov-23 22:00N 47°39' W 122°22'0 0.0
2017-Nov-23 21:30N 47°39' W 122°22'0 0.0
2017-Nov-23 21:00N 47°39' W 122°22'0 0.0
2017-Nov-23 20:30N 47°39' W 122°22'0 0.0
2017-Nov-23 20:00N 47°39' W 122°22'0 0.0
2017-Nov-23 19:30N 47°39' W 122°22'0 0.0
2017-Nov-23 19:00N 47°39' W 122°22'0 0.0
2017-Nov-23 18:30N 47°39' W 122°22'0 0.0
2017-Nov-23 18:00N 47°39' W 122°22'0 0.0
2017-Nov-23 17:30N 47°39' W 122°22'0 0.0
2017-Nov-23 17:00N 47°39' W 122°22'0 0.0
2017-Nov-23 16:30N 47°39' W 122°22'0 0.0
2017-Nov-23 16:00N 47°39' W 122°22'0 0.0
2017-Nov-23 15:30N 47°39' W 122°22'0 0.0
2017-Nov-23 15:00N 47°39' W 122°22'0 0.0
2017-Nov-23 14:30N 47°39' W 122°22'0 0.0
2017-Nov-23 14:00N 47°39' W 122°22'0 0.0
2017-Nov-23 13:30N 47°39' W 122°22'0 0.0
2017-Nov-23 13:01N 47°39' W 122°22'0 0.0
2017-Nov-23 12:30N 47°39' W 122°22'0 0.0
2017-Nov-23 12:00N 47°39' W 122°22'0 0.0
2017-Nov-23 11:30N 47°39' W 122°22'0 0.0
2017-Nov-23 11:00N 47°39' W 122°22'0 0.0
2017-Nov-23 10:30N 47°39' W 122°22'0 0.0
2017-Nov-23 10:00N 47°39' W 122°22'0 0.0
2017-Nov-23 09:30N 47°39' W 122°22'0 0.0
2017-Nov-23 09:00N 47°39' W 122°22'0 0.0
2017-Nov-23 08:30N 47°39' W 122°22'0 0.0
2017-Nov-23 08:00N 47°39' W 122°22'0 0.0
2017-Nov-23 07:30N 47°39' W 122°22'0 0.0
2017-Nov-23 07:00N 47°39' W 122°22'0 0.0
2017-Nov-23 06:30N 47°39' W 122°22'0 0.0
2017-Nov-23 06:00N 47°39' W 122°22'0 0.0
2017-Nov-23 05:30N 47°39' W 122°22'0 0.0
2017-Nov-23 05:00N 47°39' W 122°22'0 0.0
2017-Nov-23 04:30N 47°39' W 122°22'0 0.0
2017-Nov-23 04:00N 47°39' W 122°22'0 0.0
2017-Nov-23 03:30N 47°39' W 122°22'0 0.0
2017-Nov-23 03:00N 47°39' W 122°22'0 0.0
2017-Nov-23 02:30N 47°39' W 122°22'0 0.0
2017-Nov-23 02:00N 47°39' W 122°22'0 0.0
2017-Nov-23 01:30N 47°39' W 122°22'0 0.0
2017-Nov-23 01:00N 47°39' W 122°22'0 0.0
2017-Nov-23 00:30N 47°39' W 122°22'0 0.0
2017-Nov-23 00:00N 47°39' W 122°22'0 0.0
2017-Nov-22 23:30N 47°39' W 122°22'0 0.0
2017-Nov-22 23:00N 47°39' W 122°22'0 0.0
2017-Nov-22 22:30N 47°39' W 122°22'0 0.0
2017-Nov-22 22:00N 47°39' W 122°22'0 0.0
2017-Nov-22 21:30N 47°39' W 122°22'0 0.0
2017-Nov-22 21:00N 47°39' W 122°22'0 0.0
2017-Nov-22 20:30N 47°39' W 122°22'0 0.0
2017-Nov-22 20:01N 47°39' W 122°22'0 0.0
2017-Nov-22 19:30N 47°39' W 122°22'  
2017-Nov-20 00:30N 47°39' W 122°22'  
Track history (hours):
 
Tides and Currents Weather Stations Pressure Air Temp Water Temp Dewpoint Dewpoint Depression Visibility Wind Speed Wind Dir Waves Ship Positions

North American

Owner: NORTH AMERICAN INC, SEATTLE, WA. More information available from US FCC via Universal Licensing System and Coast Guard Vessel Documentation Center.

Last reported at 2017-Nov-30 00:17 UTC. Time now 2018-Feb-22 19:30 UTC.
Position N 47°39' W 122°22'.
Warning: this ship's position is months out of date.

Length 32 m; draft 2.5 m.

Type: Fishing. MMSI: 367307370.

Date/timePositionNaut miles runAvg speedWind from/ knotsBaromVisibWave heightAir tempDewpointWater temp
2017-Nov-30 00:17N 47°39' W 122°22'0 0.0
2017-Nov-30 00:00N 47°39' W 122°22'0 0.0
2017-Nov-29 23:30N 47°39' W 122°22'0 0.0
2017-Nov-29 23:00N 47°39' W 122°22'0 0.0
2017-Nov-29 22:30N 47°39' W 122°22'1 2.6
2017-Nov-29 22:00N 47°40' W 122°24'2 3.3
2017-Nov-29 21:30N 47°41' W 122°25'3 6.5
2017-Nov-29 21:00N 47°45' W 122°24'0 0.3
2017-Nov-29 20:31N 47°44' W 122°24'4 9.0
2017-Nov-29 20:00N 47°40' W 122°24'0 0.4
2017-Nov-29 19:30N 47°40' W 122°24'1 2.2
2017-Nov-29 19:00N 47°39' W 122°22'0 0.0
2017-Nov-29 18:30N 47°39' W 122°22'0 0.0
2017-Nov-29 18:00N 47°39' W 122°22'0 0.0
2017-Nov-29 17:30N 47°39' W 122°22'0 0.0
2017-Nov-29 17:00N 47°39' W 122°22'0 0.0
2017-Nov-29 16:30N 47°39' W 122°22'0 0.0
2017-Nov-29 16:00N 47°39' W 122°22'0 0.0
2017-Nov-29 15:30N 47°39' W 122°22'0 0.0
2017-Nov-29 15:00N 47°39' W 122°22'0 0.0
2017-Nov-29 14:30N 47°39' W 122°22'0 0.0
2017-Nov-29 14:00N 47°39' W 122°22'0 0.0
2017-Nov-29 13:30N 47°39' W 122°22'0 0.0
2017-Nov-29 13:00N 47°39' W 122°22'0 0.0
2017-Nov-29 12:30N 47°39' W 122°22'0 0.0
2017-Nov-29 12:00N 47°39' W 122°22'0 0.0
2017-Nov-29 11:30N 47°39' W 122°22'0 0.0
2017-Nov-29 11:00N 47°39' W 122°22'0 0.0
2017-Nov-29 10:30N 47°39' W 122°22'0 0.0
2017-Nov-29 10:01N 47°39' W 122°22'0 0.0
2017-Nov-29 09:30N 47°39' W 122°22'0 0.0
2017-Nov-29 09:00N 47°39' W 122°22'0 0.0
2017-Nov-29 08:30N 47°39' W 122°22'0 0.0
2017-Nov-29 08:00N 47°39' W 122°22'0 0.0
2017-Nov-29 07:30N 47°39' W 122°22'0 0.0
2017-Nov-29 07:00N 47°39' W 122°22'0 0.0
2017-Nov-29 06:30N 47°39' W 122°22'0 0.0
2017-Nov-29 06:00N 47°39' W 122°22'0 0.0
2017-Nov-29 05:30N 47°39' W 122°22'0 0.0
2017-Nov-29 05:00N 47°39' W 122°22'0 0.0
2017-Nov-29 04:30N 47°39' W 122°22'0 0.0
2017-Nov-29 04:00N 47°39' W 122°22'0 0.0
2017-Nov-29 03:30N 47°39' W 122°22'0 0.0
2017-Nov-29 03:00N 47°39' W 122°22'0 0.0
2017-Nov-29 02:30N 47°39' W 122°22'0 0.0
2017-Nov-29 02:00N 47°39' W 122°22'0 0.0
2017-Nov-29 01:30N 47°39' W 122°22'0 0.0
2017-Nov-29 01:00N 47°39' W 122°22'0 0.0
2017-Nov-29 00:30N 47°39' W 122°22'0 0.0
2017-Nov-29 00:00N 47°39' W 122°22'0 0.0
2017-Nov-28 23:30N 47°39' W 122°22'0 0.0
2017-Nov-28 23:01N 47°39' W 122°22'0 0.0
2017-Nov-28 22:31N 47°39' W 122°22'0 0.0
2017-Nov-28 22:00N 47°39' W 122°22'0 0.0
2017-Nov-28 21:30N 47°39' W 122°22'0 0.0
2017-Nov-28 21:00N 47°39' W 122°22'0 0.0
2017-Nov-28 20:30N 47°39' W 122°22'0 0.0
2017-Nov-28 20:00N 47°39' W 122°22'0 0.0
2017-Nov-28 19:30N 47°39' W 122°22'0 0.0
2017-Nov-28 19:00N 47°39' W 122°22'0 0.0
2017-Nov-28 18:31N 47°39' W 122°22'0 0.0
2017-Nov-28 18:00N 47°39' W 122°22'0 0.0
2017-Nov-28 17:30N 47°39' W 122°22'0 0.0
2017-Nov-28 17:01N 47°39' W 122°22'0 0.0
2017-Nov-28 16:30N 47°39' W 122°22'0 0.0
2017-Nov-28 16:00N 47°39' W 122°22'0 0.0
2017-Nov-28 15:00N 47°39' W 122°22'0 0.0
2017-Nov-28 14:30N 47°39' W 122°22'0 0.0
2017-Nov-28 14:00N 47°39' W 122°22'0 0.0
2017-Nov-28 13:30N 47°39' W 122°22'0 0.0
2017-Nov-28 13:00N 47°39' W 122°22'0 0.0
2017-Nov-28 12:29N 47°39' W 122°22'0 0.0
2017-Nov-28 12:00N 47°39' W 122°22'0 0.0
2017-Nov-28 11:30N 47°39' W 122°22'0 0.0
2017-Nov-28 11:00N 47°39' W 122°22'0 0.0
2017-Nov-28 10:30N 47°39' W 122°22'0 0.0
2017-Nov-28 10:00N 47°39' W 122°22'0 0.0
2017-Nov-28 09:30N 47°39' W 122°22'0 0.0
2017-Nov-28 09:00N 47°39' W 122°22'0 0.0
2017-Nov-28 08:30N 47°39' W 122°22'0 0.0
2017-Nov-28 08:00N 47°39' W 122°22'0 0.0
2017-Nov-28 07:30N 47°39' W 122°22'0 0.0
2017-Nov-28 07:00N 47°39' W 122°22'0 0.0
2017-Nov-28 06:30N 47°39' W 122°22'0 0.0
2017-Nov-28 06:00N 47°39' W 122°22'0 0.0
2017-Nov-28 05:30N 47°39' W 122°22'0 0.0
2017-Nov-28 04:30N 47°39' W 122°22'0 0.0
2017-Nov-28 04:00N 47°39' W 122°22'0 0.0
2017-Nov-28 03:30N 47°39' W 122°22'0 0.0
2017-Nov-28 03:00N 47°39' W 122°22'0 0.0
2017-Nov-28 02:30N 47°39' W 122°22'0 0.0
2017-Nov-28 02:00N 47°39' W 122°22'0 0.0
2017-Nov-28 01:30N 47°39' W 122°22'0 0.0
2017-Nov-28 01:00N 47°39' W 122°22'0 0.0
2017-Nov-28 00:30N 47°39' W 122°22'0 0.0
2017-Nov-28 00:00N 47°39' W 122°22'0 0.0
2017-Nov-27 23:31N 47°39' W 122°22'0 0.0
2017-Nov-27 23:00N 47°39' W 122°22'0 0.0
2017-Nov-27 22:30N 47°39' W 122°22'0 0.0
2017-Nov-27 22:00N 47°39' W 122°22'0 0.0
2017-Nov-27 21:30N 47°39' W 122°22'0 0.0
2017-Nov-27 20:54N 47°39' W 122°22'0 0.0
2017-Nov-27 20:30N 47°39' W 122°22'0 0.0
2017-Nov-27 20:00N 47°39' W 122°22'0 0.0
2017-Nov-27 19:30N 47°39' W 122°22'0 0.0
2017-Nov-27 19:00N 47°39' W 122°22'0 0.0
2017-Nov-27 18:30N 47°39' W 122°22'0 0.0
2017-Nov-27 18:00N 47°39' W 122°22'0 0.0
2017-Nov-27 17:27N 47°39' W 122°22'0 0.0
2017-Nov-27 16:59N 47°39' W 122°22'0 0.0
2017-Nov-27 16:30N 47°39' W 122°22'0 0.0
2017-Nov-27 15:58N 47°39' W 122°22'0 0.0
2017-Nov-27 15:30N 47°39' W 122°22'0 0.0
2017-Nov-27 14:44N 47°39' W 122°22'0 0.0
2017-Nov-27 14:09N 47°39' W 122°22'0 0.0
2017-Nov-27 13:56N 47°39' W 122°22'0 0.0
2017-Nov-27 13:30N 47°39' W 122°22'0 0.0
2017-Nov-27 13:00N 47°39' W 122°22'0 0.0
2017-Nov-27 12:30N 47°39' W 122°22'0 0.0
2017-Nov-27 11:57N 47°39' W 122°22'0 0.0
2017-Nov-27 11:27N 47°39' W 122°22'0 0.0
2017-Nov-27 10:57N 47°39' W 122°22'0 0.0
2017-Nov-27 10:29N 47°39' W 122°22'0 0.0
2017-Nov-27 09:59N 47°39' W 122°22'0 0.0
2017-Nov-27 09:29N 47°39' W 122°22'0 0.0
2017-Nov-27 08:59N 47°39' W 122°22'0 0.0
2017-Nov-27 08:30N 47°39' W 122°22'0 0.0
2017-Nov-27 08:00N 47°39' W 122°22'0 0.0
2017-Nov-27 07:30N 47°39' W 122°22'0 0.0
2017-Nov-27 07:00N 47°39' W 122°22'0 0.0
2017-Nov-27 06:30N 47°39' W 122°22'0 0.0
2017-Nov-27 06:00N 47°39' W 122°22'0 0.0
2017-Nov-27 05:30N 47°39' W 122°22'0 0.0
2017-Nov-27 05:00N 47°39' W 122°22'0 0.0
2017-Nov-27 04:31N 47°39' W 122°22'0 0.0
2017-Nov-27 04:00N 47°39' W 122°22'0 0.0
2017-Nov-27 03:29N 47°39' W 122°22'0 0.0
2017-Nov-27 03:00N 47°39' W 122°22'0 0.0
2017-Nov-27 02:30N 47°39' W 122°22'0 0.0
2017-Nov-27 01:58N 47°39' W 122°22'0 0.0
2017-Nov-27 01:30N 47°39' W 122°22'0 0.0
2017-Nov-27 01:00N 47°39' W 122°22'0 0.0
2017-Nov-27 00:30N 47°39' W 122°22'0 0.0
2017-Nov-27 00:00N 47°39' W 122°22'0 0.0
2017-Nov-26 23:30N 47°39' W 122°22'0 0.0
2017-Nov-26 23:00N 47°39' W 122°22'0 0.0
2017-Nov-26 22:30N 47°39' W 122°22'0 0.0
2017-Nov-26 22:00N 47°39' W 122°22'0 0.0
2017-Nov-26 21:30N 47°39' W 122°22'0 0.0
2017-Nov-26 21:00N 47°39' W 122°22'0 0.0
2017-Nov-26 20:29N 47°39' W 122°22'0 0.0
2017-Nov-26 20:00N 47°39' W 122°22'0 0.0
2017-Nov-26 19:31N 47°39' W 122°22'0 0.0
2017-Nov-26 19:00N 47°39' W 122°22'0 0.0
2017-Nov-26 18:30N 47°39' W 122°22'0 0.0
2017-Nov-26 18:00N 47°39' W 122°22'0 0.0
2017-Nov-26 17:30N 47°39' W 122°22'0 0.0
2017-Nov-26 17:00N 47°39' W 122°22'0 0.0
2017-Nov-26 16:30N 47°39' W 122°22'0 0.0
2017-Nov-26 16:00N 47°39' W 122°22'0 0.0
2017-Nov-26 15:30N 47°39' W 122°22'0 0.0
2017-Nov-26 15:00N 47°39' W 122°22'0 0.0
2017-Nov-26 14:30N 47°39' W 122°22'0 0.0
2017-Nov-26 14:00N 47°39' W 122°22'0 0.0
2017-Nov-26 13:29N 47°39' W 122°22'0 0.0
2017-Nov-26 13:00N 47°39' W 122°22'0 0.0
2017-Nov-26 12:30N 47°39' W 122°22'0 0.0
2017-Nov-26 12:01N 47°39' W 122°22'0 0.0
2017-Nov-26 11:30N 47°39' W 122°22'0 0.0
2017-Nov-26 10:59N 47°39' W 122°22'0 0.0
2017-Nov-26 10:30N 47°39' W 122°22'0 0.0
2017-Nov-26 10:00N 47°39' W 122°22'0 0.0
2017-Nov-26 09:30N 47°39' W 122°22'0 0.0
2017-Nov-26 08:59N 47°39' W 122°22'0 0.0
2017-Nov-26 08:30N 47°39' W 122°22'0 0.0
2017-Nov-26 08:00N 47°39' W 122°22'0 0.0
2017-Nov-26 07:30N 47°39' W 122°22'0 0.0
2017-Nov-26 06:59N 47°39' W 122°22'0 0.0
2017-Nov-26 06:30N 47°39' W 122°22'0 0.0
2017-Nov-26 06:00N 47°39' W 122°22'0 0.0
2017-Nov-26 05:30N 47°39' W 122°22'0 0.0
2017-Nov-26 05:00N 47°39' W 122°22'0 0.0
2017-Nov-26 04:30N 47°39' W 122°22'0 0.0
2017-Nov-26 03:59N 47°39' W 122°22'0 0.0
2017-Nov-26 03:30N 47°39' W 122°22'0 0.0
2017-Nov-26 03:00N 47°39' W 122°22'0 0.0
2017-Nov-26 02:30N 47°39' W 122°22'0 0.0
2017-Nov-26 02:01N 47°39' W 122°22'0 0.0
2017-Nov-26 01:31N 47°39' W 122°22'0 0.0
2017-Nov-26 01:00N 47°39' W 122°22'0 0.0
2017-Nov-26 00:30N 47°39' W 122°22'0 0.0
2017-Nov-26 00:00N 47°39' W 122°22'0 0.0
2017-Nov-25 23:30N 47°39' W 122°22'0 0.0
2017-Nov-25 23:00N 47°39' W 122°22'0 0.0
2017-Nov-25 22:30N 47°39' W 122°22'0 0.0
2017-Nov-25 22:00N 47°39' W 122°22'0 0.0
2017-Nov-25 21:30N 47°39' W 122°22'0 0.0
2017-Nov-25 21:00N 47°39' W 122°22'0 0.0
2017-Nov-25 20:30N 47°39' W 122°22'0 0.0
2017-Nov-25 20:01N 47°39' W 122°22'0 0.0
2017-Nov-25 19:30N 47°39' W 122°22'0 0.0
2017-Nov-25 19:00N 47°39' W 122°22'0 0.0
2017-Nov-25 18:30N 47°39' W 122°22'0 0.0
2017-Nov-25 18:00N 47°39' W 122°22'0 0.0
2017-Nov-25 17:30N 47°39' W 122°22'0 0.0
2017-Nov-25 17:00N 47°39' W 122°22'0 0.0
2017-Nov-25 16:30N 47°39' W 122°22'0 0.0
2017-Nov-25 16:00N 47°39' W 122°22'0 0.0
2017-Nov-25 15:30N 47°39' W 122°22'0 0.0
2017-Nov-25 15:00N 47°39' W 122°22'0 0.0
2017-Nov-25 14:30N 47°39' W 122°22'0 0.0
2017-Nov-25 14:00N 47°39' W 122°22'0 0.0
2017-Nov-25 13:30N 47°39' W 122°22'0 0.0
2017-Nov-25 13:00N 47°39' W 122°22'0 0.0
2017-Nov-25 12:30N 47°39' W 122°22'0 0.0
2017-Nov-25 12:00N 47°39' W 122°22'0 0.0
2017-Nov-25 11:30N 47°39' W 122°22'0 0.0
2017-Nov-25 11:00N 47°39' W 122°22'0 0.0
2017-Nov-25 10:30N 47°39' W 122°22'0 0.0
2017-Nov-25 10:00N 47°39' W 122°22'0 0.0
2017-Nov-25 09:30N 47°39' W 122°22'0 0.0
2017-Nov-25 09:00N 47°39' W 122°22'0 0.0
2017-Nov-25 08:30N 47°39' W 122°22'0 0.0
2017-Nov-25 08:00N 47°39' W 122°22'0 0.0
2017-Nov-25 07:30N 47°39' W 122°22'0 0.0
2017-Nov-25 07:00N 47°39' W 122°22'0 0.0
2017-Nov-25 06:30N 47°39' W 122°22'0 0.0
2017-Nov-25 06:00N 47°39' W 122°22'0 0.0
2017-Nov-25 05:30N 47°39' W 122°22'0 0.0
2017-Nov-25 05:00N 47°39' W 122°22'0 0.0
2017-Nov-25 04:30N 47°39' W 122°22'0 0.0
2017-Nov-25 04:00N 47°39' W 122°22'0 0.0
2017-Nov-25 03:30N 47°39' W 122°22'0 0.0
2017-Nov-25 03:00N 47°39' W 122°22'0 0.0
2017-Nov-25 02:30N 47°39' W 122°22'0 0.0
2017-Nov-25 02:00N 47°39' W 122°22'0 0.0
2017-Nov-25 01:30N 47°39' W 122°22'0 0.0
2017-Nov-25 01:00N 47°39' W 122°22'0 0.0
2017-Nov-25 00:30N 47°39' W 122°22'0 0.0
2017-Nov-25 00:00N 47°39' W 122°22'0 0.0
2017-Nov-24 23:30N 47°39' W 122°22'0 0.0
2017-Nov-24 23:00N 47°39' W 122°22'0 0.0
2017-Nov-24 22:30N 47°39' W 122°22'0 0.0
2017-Nov-24 22:00N 47°39' W 122°22'0 0.0
2017-Nov-24 21:30N 47°39' W 122°22'0 0.0
2017-Nov-24 21:00N 47°39' W 122°22'0 0.0
2017-Nov-24 20:30N 47°39' W 122°22'0 0.0
2017-Nov-24 20:00N 47°39' W 122°22'0 0.0
2017-Nov-24 19:30N 47°39' W 122°22'0 0.0
2017-Nov-24 19:00N 47°39' W 122°22'0 0.0
2017-Nov-24 18:30N 47°39' W 122°22'0 0.0
2017-Nov-24 18:00N 47°39' W 122°22'0 0.0
2017-Nov-24 17:30N 47°39' W 122°22'0 0.0
2017-Nov-24 17:00N 47°39' W 122°22'0 0.0
2017-Nov-24 16:30N 47°39' W 122°22'0 0.0
2017-Nov-24 16:00N 47°39' W 122°22'0 0.0
2017-Nov-24 15:30N 47°39' W 122°22'0 0.0
2017-Nov-24 15:00N 47°39' W 122°22'0 0.0
2017-Nov-24 14:30N 47°39' W 122°22'0 0.0
2017-Nov-24 14:00N 47°39' W 122°22'0 0.0
2017-Nov-24 13:30N 47°39' W 122°22'0 0.0
2017-Nov-24 13:00N 47°39' W 122°22'0 0.0
2017-Nov-24 12:30N 47°39' W 122°22'0 0.0
2017-Nov-24 12:00N 47°39' W 122°22'0 0.0
2017-Nov-24 11:30N 47°39' W 122°22'0 0.0
2017-Nov-24 11:00N 47°39' W 122°22'0 0.0
2017-Nov-24 10:30N 47°39' W 122°22'0 0.0
2017-Nov-24 10:00N 47°39' W 122°22'0 0.0
2017-Nov-24 09:30N 47°39' W 122°22'0 0.0
2017-Nov-24 09:00N 47°39' W 122°22'0 0.0
2017-Nov-24 08:30N 47°39' W 122°22'0 0.0
2017-Nov-24 08:00N 47°39' W 122°22'0 0.0
2017-Nov-24 07:30N 47°39' W 122°22'0 0.0
2017-Nov-24 07:00N 47°39' W 122°22'0 0.0
2017-Nov-24 06:30N 47°39' W 122°22'0 0.0
2017-Nov-24 06:00N 47°39' W 122°22'0 0.0
2017-Nov-24 05:30N 47°39' W 122°22'0 0.0
2017-Nov-24 05:00N 47°39' W 122°22'0 0.0
2017-Nov-24 04:30N 47°39' W 122°22'0 0.0
2017-Nov-24 04:00N 47°39' W 122°22'0 0.0
2017-Nov-24 03:30N 47°39' W 122°22'0 0.0
2017-Nov-24 03:00N 47°39' W 122°22'0 0.0
2017-Nov-24 02:30N 47°39' W 122°22'0 0.0
2017-Nov-24 02:00N 47°39' W 122°22'0 0.0
2017-Nov-24 01:30N 47°39' W 122°22'0 0.0
2017-Nov-24 01:00N 47°39' W 122°22'0 0.0
2017-Nov-24 00:30N 47°39' W 122°22'0 0.0
2017-Nov-24 00:00N 47°39' W 122°22'0 0.0
2017-Nov-23 23:30N 47°39' W 122°22'0 0.0
2017-Nov-23 23:00N 47°39' W 122°22'0 0.0
2017-Nov-23 22:30N 47°39' W 122°22'0 0.0
2017-Nov-23 22:00N 47°39' W 122°22'0 0.0
2017-Nov-23 21:30N 47°39' W 122°22'0 0.0
2017-Nov-23 21:00N 47°39' W 122°22'0 0.0
2017-Nov-23 20:30N 47°39' W 122°22'0 0.0
2017-Nov-23 20:00N 47°39' W 122°22'0 0.0
2017-Nov-23 19:30N 47°39' W 122°22'0 0.0
2017-Nov-23 19:00N 47°39' W 122°22'0 0.0
2017-Nov-23 18:30N 47°39' W 122°22'0 0.0
2017-Nov-23 18:00N 47°39' W 122°22'0 0.0
2017-Nov-23 17:30N 47°39' W 122°22'0 0.0
2017-Nov-23 17:00N 47°39' W 122°22'0 0.0
2017-Nov-23 16:30N 47°39' W 122°22'0 0.0
2017-Nov-23 16:00N 47°39' W 122°22'0 0.0
2017-Nov-23 15:30N 47°39' W 122°22'0 0.0
2017-Nov-23 15:00N 47°39' W 122°22'0 0.0
2017-Nov-23 14:30N 47°39' W 122°22'0 0.0
2017-Nov-23 14:00N 47°39' W 122°22'0 0.0
2017-Nov-23 13:30N 47°39' W 122°22'0 0.0
2017-Nov-23 13:01N 47°39' W 122°22'0 0.0
2017-Nov-23 12:30N 47°39' W 122°22'0 0.0
2017-Nov-23 12:00N 47°39' W 122°22'0 0.0
2017-Nov-23 11:30N 47°39' W 122°22'0 0.0
2017-Nov-23 11:00N 47°39' W 122°22'0 0.0
2017-Nov-23 10:30N 47°39' W 122°22'0 0.0
2017-Nov-23 10:00N 47°39' W 122°22'0 0.0
2017-Nov-23 09:30N 47°39' W 122°22'0 0.0
2017-Nov-23 09:00N 47°39' W 122°22'0 0.0
2017-Nov-23 08:30N 47°39' W 122°22'0 0.0
2017-Nov-23 08:00N 47°39' W 122°22'0 0.0
2017-Nov-23 07:30N 47°39' W 122°22'0 0.0
2017-Nov-23 07:00N 47°39' W 122°22'0 0.0
2017-Nov-23 06:30N 47°39' W 122°22'0 0.0
2017-Nov-23 06:00N 47°39' W 122°22'0 0.0
2017-Nov-23 05:30N 47°39' W 122°22'0 0.0
2017-Nov-23 05:00N 47°39' W 122°22'0 0.0
2017-Nov-23 04:30N 47°39' W 122°22'0 0.0
2017-Nov-23 04:00N 47°39' W 122°22'0 0.0
2017-Nov-23 03:30N 47°39' W 122°22'0 0.0
2017-Nov-23 03:00N 47°39' W 122°22'0 0.0
2017-Nov-23 02:30N 47°39' W 122°22'0 0.0
2017-Nov-23 02:00N 47°39' W 122°22'0 0.0
2017-Nov-23 01:30N 47°39' W 122°22'0 0.0
2017-Nov-23 01:00N 47°39' W 122°22'0 0.0
2017-Nov-23 00:30N 47°39' W 122°22'0 0.0
2017-Nov-23 00:00N 47°39' W 122°22'0 0.0
2017-Nov-22 23:30N 47°39' W 122°22'0 0.0
2017-Nov-22 23:00N 47°39' W 122°22'0 0.0
2017-Nov-22 22:30N 47°39' W 122°22'0 0.0
2017-Nov-22 22:00N 47°39' W 122°22'0 0.0
2017-Nov-22 21:30N 47°39' W 122°22'0 0.0
2017-Nov-22 21:00N 47°39' W 122°22'0 0.0
2017-Nov-22 20:30N 47°39' W 122°22'0 0.0
2017-Nov-22 20:01N 47°39' W 122°22'0 0.0
2017-Nov-22 19:30N 47°39' W 122°22'  
2017-Nov-20 00:30N 47°39' W 122°22'  

Dump ship's entire track history